createdAt,value
2017-05-01T00:00:53.554Z,0
2017-05-01T00:01:52.974Z,0
2017-05-01T00:02:53.615Z,0
2017-05-01T00:03:53.345Z,0
2017-05-01T00:04:53.388Z,0
2017-05-01T00:05:53.760Z,0
2017-05-01T00:06:53.457Z,0
2017-05-01T00:07:54.106Z,0
2017-05-01T00:08:53.836Z,0
2017-05-01T00:09:53.860Z,0
2017-05-01T00:10:53.277Z,0
2017-05-01T00:11:53.624Z,0
2017-05-01T00:12:53.348Z,0
2017-05-01T00:13:53.700Z,0
2017-05-01T00:14:53.724Z,0
2017-05-01T00:15:53.753Z,0
2017-05-01T00:16:53.787Z,0
2017-05-01T00:17:54.442Z,0
2017-05-01T00:18:54.177Z,0
2017-05-01T00:19:53.629Z,0
2017-05-01T00:20:53.624Z,0
2017-05-01T00:21:53.694Z,0
2017-05-01T00:22:53.695Z,0
2017-05-01T00:23:54.343Z,0
2017-05-01T00:24:53.765Z,0
2017-05-01T00:25:54.163Z,0
2017-05-01T00:26:54.144Z,0
2017-05-01T00:27:54.483Z,0
2017-05-01T00:28:53.893Z,0
2017-05-01T00:29:54.555Z,0
2017-05-01T00:30:54.277Z,0
2017-05-01T00:31:54.610Z,0
2017-05-01T00:32:54.645Z,0
2017-05-01T00:33:54.381Z,0
2017-05-01T00:34:54.715Z,0
2017-05-01T00:35:54.749Z,0
2017-05-01T00:36:54.180Z,0
2017-05-01T00:37:54.824Z,0
2017-05-01T00:38:55.179Z,0
2017-05-01T00:39:54.601Z,0
2017-05-01T00:40:54.927Z,0
2017-05-01T00:41:54.348Z,0
2017-05-01T00:42:54.990Z,0
2017-05-01T00:43:55.025Z,0
2017-05-01T00:44:54.761Z,0
2017-05-01T00:45:54.794Z,0
2017-05-01T00:46:54.511Z,0
2017-05-01T00:47:54.861Z,0
2017-05-01T00:48:55.199Z,0
2017-05-01T00:49:55.245Z,0
2017-05-01T00:50:54.973Z,0
2017-05-01T00:51:54.989Z,0
2017-05-01T00:52:55.964Z,0
2017-05-01T00:53:55.375Z,0
2017-05-01T00:54:55.028Z,0
2017-05-01T00:55:55.745Z,0
2017-05-01T00:56:55.175Z,0
2017-05-01T00:57:55.828Z,0
2017-05-01T00:58:55.858Z,0
2017-05-01T00:59:55.582Z,0
2017-05-01T01:00:55.301Z,0
2017-05-01T01:01:55.333Z,0
2017-05-01T01:02:56.293Z,0
2017-05-01T01:03:56.046Z,0
2017-05-01T01:04:55.135Z,0
2017-05-01T01:05:55.469Z,0
2017-05-01T01:06:55.202Z,0
2017-05-01T01:07:55.550Z,0
2017-05-01T01:08:56.493Z,0
2017-05-01T01:09:55.959Z,0
2017-05-01T01:10:55.959Z,0
2017-05-01T01:11:55.982Z,0
2017-05-01T01:12:56.641Z,0
2017-05-01T01:13:56.366Z,0
2017-05-01T01:14:55.790Z,0
2017-05-01T01:15:55.816Z,0
2017-05-01T01:16:55.548Z,0
2017-05-01T01:17:56.507Z,0
2017-05-01T01:18:56.224Z,0
2017-05-01T01:19:56.261Z,0
2017-05-01T01:20:55.677Z,0
2017-05-01T01:21:56.013Z,0
2017-05-01T01:22:56.060Z,0
2017-05-01T01:23:56.724Z,0
2017-05-01T01:24:56.749Z,0
2017-05-01T01:25:56.158Z,0
2017-05-01T01:26:56.807Z,0
2017-05-01T01:27:57.150Z,0
2017-05-01T01:28:56.573Z,0
2017-05-01T01:29:56.619Z,0
2017-05-01T01:30:56.334Z,0
2017-05-01T01:31:56.979Z,0
2017-05-01T01:32:56.702Z,0
2017-05-01T01:33:56.749Z,0
2017-05-01T01:34:56.768Z,0
2017-05-01T01:35:56.488Z,0
2017-05-01T01:36:56.841Z,0
2017-05-01T01:37:56.877Z,0
2017-05-01T01:38:57.224Z,0
2017-05-01T01:39:56.644Z,0
2017-05-01T01:40:56.351Z,0
2017-05-01T01:41:56.386Z,0
2017-05-01T01:42:56.737Z,0
2017-05-01T01:43:57.075Z,0
2017-05-01T01:44:57.114Z,0
2017-05-01T01:45:56.829Z,0
2017-05-01T01:46:56.874Z,0
2017-05-01T01:47:57.217Z,0
2017-05-01T01:48:57.240Z,0
2017-05-01T01:49:56.972Z,0
2017-05-01T01:50:56.689Z,0
2017-05-01T01:51:57.658Z,0
2017-05-01T01:52:57.699Z,0
2017-05-01T01:53:58.041Z,0
2017-05-01T01:54:57.139Z,0
2017-05-01T01:55:56.862Z,0
2017-05-01T01:56:56.905Z,0
2017-05-01T01:57:57.555Z,0
2017-05-01T01:58:57.595Z,0
2017-05-01T01:59:57.622Z,0
2017-05-01T02:00:57.651Z,0
2017-05-01T02:01:57.075Z,0
2017-05-01T02:02:57.726Z,0
2017-05-01T02:03:58.070Z,0
2017-05-01T02:04:58.402Z,0
2017-05-01T02:05:57.210Z,0
2017-05-01T02:06:57.278Z,0
2017-05-01T02:07:58.509Z,0
2017-05-01T02:08:57.617Z,0
2017-05-01T02:09:57.963Z,0
2017-05-01T02:10:57.689Z,0
2017-05-01T02:11:57.737Z,0
2017-05-01T02:12:57.758Z,0
2017-05-01T02:13:58.101Z,0
2017-05-01T02:14:57.823Z,0
2017-05-01T02:15:58.777Z,0
2017-05-01T02:16:57.585Z,0
2017-05-01T02:17:57.917Z,0
2017-05-01T02:18:58.269Z,0
2017-05-01T02:19:58.031Z,0
2017-05-01T02:20:58.027Z,0
2017-05-01T02:21:57.749Z,0
2017-05-01T02:22:58.718Z,0
2017-05-01T02:23:58.438Z,0
2017-05-01T02:24:58.157Z,0
2017-05-01T02:25:58.194Z,0
2017-05-01T02:26:58.231Z,0
2017-05-01T02:27:59.193Z,0
2017-05-01T02:28:58.598Z,0
2017-05-01T02:29:58.642Z,0
2017-05-01T02:30:58.052Z,0
2017-05-01T02:31:58.391Z,0
2017-05-01T02:32:58.118Z,0
2017-05-01T02:33:58.456Z,0
2017-05-01T02:34:58.808Z,0
2017-05-01T02:35:58.214Z,0
2017-05-01T02:36:58.260Z,0
2017-05-01T02:37:58.896Z,0
2017-05-01T02:38:58.626Z,0
2017-05-01T02:39:58.664Z,0
2017-05-01T02:40:58.694Z,0
2017-05-01T02:41:58.729Z,0
2017-05-01T02:42:59.390Z,0
2017-05-01T02:43:58.798Z,0
2017-05-01T02:44:58.831Z,0
2017-05-01T02:45:58.859Z,0
2017-05-01T02:46:58.901Z,0
2017-05-01T02:47:59.235Z,0
2017-05-01T02:48:58.962Z,0
2017-05-01T02:49:58.690Z,0
2017-05-01T02:50:58.726Z,0
2017-05-01T02:51:59.074Z,0
2017-05-01T02:52:59.719Z,0
2017-05-01T02:53:59.748Z,0
2017-05-01T02:54:59.171Z,0
2017-05-01T02:55:58.885Z,0
2017-05-01T02:56:59.237Z,0
2017-05-01T02:57:59.267Z,0
2017-05-01T02:58:59.606Z,0
2017-05-01T02:59:59.330Z,0
2017-05-01T03:00:59.063Z,0
2017-05-01T03:01:59.093Z,0
2017-05-01T03:03:00.056Z,0
2017-05-01T03:03:59.461Z,0
2017-05-01T03:04:59.501Z,0
2017-05-01T03:06:00.149Z,0
2017-05-01T03:06:59.258Z,0
2017-05-01T03:07:59.623Z,0
2017-05-01T03:08:59.330Z,0
2017-05-01T03:10:00.289Z,0
2017-05-01T03:11:00.308Z,0
2017-05-01T03:11:59.736Z,0
2017-05-01T03:13:00.079Z,0
2017-05-01T03:14:00.107Z,0
2017-05-01T03:15:00.452Z,0
2017-05-01T03:15:59.555Z,0
2017-05-01T03:16:59.622Z,0
2017-05-01T03:18:00.555Z,0
2017-05-01T03:19:00.590Z,0
2017-05-01T03:20:00.614Z,0
2017-05-01T03:21:00.035Z,0
2017-05-01T03:22:00.065Z,0
2017-05-01T03:23:00.717Z,0
2017-05-01T03:24:00.751Z,0
2017-05-01T03:25:00.785Z,0
2017-05-01T03:26:00.207Z,0
2017-05-01T03:27:00.852Z,0
2017-05-01T03:28:01.194Z,0
2017-05-01T03:29:00.923Z,0
2017-05-01T03:30:00.638Z,0
2017-05-01T03:31:00.363Z,0
2017-05-01T03:32:00.095Z,0
2017-05-01T03:33:01.091Z,0
2017-05-01T03:34:00.467Z,0
2017-05-01T03:35:00.832Z,5
2017-05-01T03:36:00.841Z,5
2017-05-01T03:37:00.564Z,5
2017-05-01T03:38:00.910Z,5
2017-05-01T03:39:01.553Z,5
2017-05-01T03:40:00.971Z,5
2017-05-01T03:41:00.386Z,5
2017-05-01T03:42:00.419Z,5
2017-05-01T03:43:01.381Z,5
2017-05-01T03:44:01.113Z,10
2017-05-01T03:45:00.840Z,10
2017-05-01T03:46:01.175Z,10
2017-05-01T03:47:00.898Z,10
2017-05-01T03:48:01.555Z,10
2017-05-01T03:49:01.280Z,15
2017-05-01T03:50:00.995Z,15
2017-05-01T03:51:01.033Z,20
2017-05-01T03:52:00.758Z,20
2017-05-01T03:53:01.109Z,20
2017-05-01T03:54:01.772Z,20
2017-05-01T03:55:00.895Z,25
2017-05-01T03:56:01.512Z,25
2017-05-01T03:57:01.236Z,25
2017-05-01T03:58:01.583Z,25
2017-05-01T03:59:02.256Z,30
2017-05-01T04:00:01.030Z,35
2017-05-01T04:01:01.083Z,35
2017-05-01T04:02:01.400Z,35
2017-05-01T04:03:02.052Z,40
2017-05-01T04:04:01.776Z,45
2017-05-01T04:05:02.117Z,45
2017-05-01T04:06:01.533Z,50
2017-05-01T04:07:01.567Z,45
2017-05-01T04:08:01.912Z,50
2017-05-01T04:09:02.257Z,45
2017-05-01T04:10:01.673Z,45
2017-05-01T04:11:01.702Z,50
2017-05-01T04:12:01.433Z,50
2017-05-01T04:13:02.393Z,55
2017-05-01T04:14:02.141Z,50
2017-05-01T04:15:02.476Z,50
2017-05-01T04:16:01.599Z,55
2017-05-01T04:17:02.215Z,55
2017-05-01T04:18:02.566Z,55
2017-05-01T04:19:01.981Z,60
2017-05-01T04:20:02.667Z,60
2017-05-01T04:21:01.735Z,60
2017-05-01T04:22:01.776Z,65
2017-05-01T04:23:02.429Z,65
2017-05-01T04:24:02.461Z,65
2017-05-01T04:25:02.810Z,70
2017-05-01T04:26:02.219Z,70
2017-05-01T04:27:02.255Z,70
2017-05-01T04:28:02.615Z,75
2017-05-01T04:29:02.626Z,75
2017-05-01T04:30:02.064Z,80
2017-05-01T04:31:02.075Z,80
2017-05-01T04:32:02.125Z,80
2017-05-01T04:33:02.779Z,85
2017-05-01T04:34:03.116Z,85
2017-05-01T04:35:02.854Z,85
2017-05-01T04:36:02.562Z,90
2017-05-01T04:37:02.594Z,90
2017-05-01T04:38:02.990Z,90
2017-05-01T04:39:02.662Z,95
2017-05-01T04:40:02.712Z,100
2017-05-01T04:41:02.431Z,100
2017-05-01T04:42:02.795Z,105
2017-05-01T04:43:02.807Z,110
2017-05-01T04:44:02.838Z,115
2017-05-01T04:45:02.872Z,115
2017-05-01T04:46:03.232Z,125
2017-05-01T04:47:02.668Z,140
2017-05-01T04:48:02.981Z,150
2017-05-01T04:49:03.016Z,175
2017-05-01T04:50:03.047Z,165
2017-05-01T04:51:03.091Z,155
2017-05-01T04:52:03.113Z,155
2017-05-01T04:53:03.473Z,135
2017-05-01T04:54:03.833Z,130
2017-05-01T04:55:03.217Z,140
2017-05-01T04:56:02.942Z,160
2017-05-01T04:57:03.284Z,185
2017-05-01T04:58:03.324Z,200
2017-05-01T04:59:03.359Z,185
2017-05-01T05:00:03.705Z,160
2017-05-01T05:01:03.437Z,145
2017-05-01T05:02:03.158Z,150
2017-05-01T05:03:03.504Z,150
2017-05-01T05:04:04.459Z,150
2017-05-01T05:05:04.194Z,150
2017-05-01T05:06:03.297Z,155
2017-05-01T05:07:03.659Z,165
2017-05-01T05:08:04.606Z,175
2017-05-01T05:09:03.719Z,195
2017-05-01T05:10:04.061Z,190
2017-05-01T05:11:04.093Z,170
2017-05-01T05:12:03.828Z,175
2017-05-01T05:13:04.171Z,175
2017-05-01T05:14:04.506Z,185
2017-05-01T05:15:04.272Z,230
2017-05-01T05:16:03.656Z,295
2017-05-01T05:17:03.690Z,290
2017-05-01T05:18:04.687Z,250
2017-05-01T05:19:04.685Z,250
2017-05-01T05:20:04.417Z,255
2017-05-01T05:21:03.840Z,305
2017-05-01T05:22:03.875Z,325
2017-05-01T05:23:04.862Z,345
2017-05-01T05:24:04.562Z,400
2017-05-01T05:25:04.595Z,475
2017-05-01T05:26:04.639Z,505
2017-05-01T05:27:04.362Z,520
2017-05-01T05:28:04.771Z,535
2017-05-01T05:29:04.747Z,550
2017-05-01T05:30:05.095Z,560
2017-05-01T05:31:04.511Z,575
2017-05-01T05:32:04.857Z,580
2017-05-01T05:33:04.899Z,585
2017-05-01T05:34:05.244Z,610
2017-05-01T05:35:04.981Z,610
2017-05-01T05:36:04.704Z,620
2017-05-01T05:37:04.744Z,635
2017-05-01T05:38:05.085Z,630
2017-05-01T05:39:04.837Z,625
2017-05-01T05:40:04.550Z,640
2017-05-01T05:41:04.600Z,645
2017-05-01T05:42:05.146Z,655
2017-05-01T05:43:04.982Z,665
2017-05-01T05:44:05.639Z,660
2017-05-01T05:45:05.062Z,665
2017-05-01T05:46:05.109Z,670
2017-05-01T05:47:05.465Z,655
2017-05-01T05:48:05.186Z,650
2017-05-01T05:49:05.850Z,660
2017-05-01T05:50:05.790Z,665
2017-05-01T05:51:05.011Z,680
2017-05-01T05:52:05.664Z,695
2017-05-01T05:53:05.418Z,720
2017-05-01T05:54:05.749Z,735
2017-05-01T05:55:05.203Z,755
2017-05-01T05:56:05.525Z,775
2017-05-01T05:57:05.577Z,795
2017-05-01T05:58:05.611Z,810
2017-05-01T05:59:05.697Z,820
2017-05-01T06:00:05.718Z,850
2017-05-01T06:01:05.434Z,850
2017-05-01T06:02:06.108Z,850
2017-05-01T06:03:06.142Z,850
2017-05-01T06:04:05.891Z,850
2017-05-01T06:05:05.610Z,860
2017-05-01T06:06:06.276Z,870
2017-05-01T06:07:06.629Z,865
2017-05-01T06:08:06.678Z,880
2017-05-01T06:09:06.408Z,900
2017-05-01T06:10:06.143Z,910
2017-05-01T06:11:05.883Z,925
2017-05-01T06:12:06.234Z,930
2017-05-01T06:13:06.596Z,935
2017-05-01T06:14:06.329Z,965
2017-05-01T06:15:06.377Z,990
2017-05-01T06:16:06.726Z,1000
2017-05-01T06:17:06.154Z,1005
2017-05-01T06:18:06.820Z,1020
2017-05-01T06:19:06.866Z,1030
2017-05-01T06:20:06.909Z,1050
2017-05-01T06:21:06.337Z,1080
2017-05-01T06:22:07.312Z,1085
2017-05-01T06:23:06.738Z,1090
2017-05-01T06:24:06.824Z,1080
2017-05-01T06:25:07.450Z,1085
2017-05-01T06:26:06.873Z,1100
2017-05-01T06:27:06.925Z,1105
2017-05-01T06:28:06.984Z,1110
2017-05-01T06:29:07.016Z,1115
2017-05-01T06:30:07.059Z,1110
2017-05-01T06:31:07.108Z,1125
2017-05-01T06:32:07.780Z,1125
2017-05-01T06:33:07.204Z,1075
2017-05-01T06:34:07.554Z,1105
2017-05-01T06:35:07.292Z,1080
2017-05-01T06:36:07.338Z,1085
2017-05-01T06:37:07.388Z,1075
2017-05-01T06:38:07.434Z,1095
2017-05-01T06:39:08.106Z,1100
2017-05-01T06:40:07.226Z,1080
2017-05-01T06:41:07.575Z,1105
2017-05-01T06:42:07.320Z,1100
2017-05-01T06:43:08.286Z,1090
2017-05-01T06:44:08.029Z,1105
2017-05-01T06:45:08.073Z,1145
2017-05-01T06:46:07.813Z,1000
2017-05-01T06:47:07.556Z,1185
2017-05-01T06:48:08.224Z,1115
2017-05-01T06:49:08.263Z,1120
2017-05-01T06:50:07.999Z,1120
2017-05-01T06:51:08.355Z,1220
2017-05-01T06:52:08.410Z,1045
2017-05-01T06:53:08.156Z,985
2017-05-01T06:54:08.496Z,725
2017-05-01T06:55:08.234Z,1270
2017-05-01T06:56:08.585Z,1240
2017-05-01T06:57:08.019Z,1085
2017-05-01T06:58:08.059Z,1335
2017-05-01T06:59:08.417Z,1270
2017-05-01T07:00:08.476Z,700
2017-05-01T07:01:08.199Z,1400
2017-05-01T07:02:08.561Z,605
2017-05-01T07:03:08.922Z,610
2017-05-01T07:04:08.955Z,540
2017-05-01T07:05:08.693Z,1195
2017-05-01T07:06:09.055Z,605
2017-05-01T07:07:08.470Z,1045
2017-05-01T07:08:08.831Z,1485
2017-05-01T07:09:09.805Z,620
2017-05-01T07:10:09.232Z,660
2017-05-01T07:11:09.268Z,570
2017-05-01T07:12:08.706Z,1240
2017-05-01T07:13:09.691Z,1450
2017-05-01T07:14:09.416Z,1500
2017-05-01T07:15:09.451Z,510
2017-05-01T07:16:08.882Z,400
2017-05-01T07:17:09.237Z,525
2017-05-01T07:18:09.580Z,495
2017-05-01T07:19:09.360Z,525
2017-05-01T07:20:09.070Z,430
2017-05-01T07:21:09.412Z,425
2017-05-01T07:22:09.478Z,430
2017-05-01T07:23:09.499Z,420
2017-05-01T07:24:09.547Z,425
2017-05-01T07:25:09.890Z,405
2017-05-01T07:26:09.629Z,430
2017-05-01T07:27:09.684Z,515
2017-05-01T07:28:10.022Z,490
2017-05-01T07:29:09.747Z,400
2017-05-01T07:30:09.478Z,380
2017-05-01T07:31:10.140Z,465
2017-05-01T07:32:09.903Z,570
2017-05-01T07:33:09.913Z,665
2017-05-01T07:34:09.954Z,1040
2017-05-01T07:35:10.307Z,515
2017-05-01T07:36:09.729Z,560
2017-05-01T07:37:09.797Z,850
2017-05-01T07:38:10.125Z,530
2017-05-01T07:39:10.183Z,480
2017-05-01T07:40:10.510Z,495
2017-05-01T07:41:10.246Z,440
2017-05-01T07:42:09.982Z,405
2017-05-01T07:43:10.637Z,480
2017-05-01T07:44:10.685Z,630
2017-05-01T07:45:10.105Z,705
2017-05-01T07:46:10.149Z,520
2017-05-01T07:47:10.191Z,400
2017-05-01T07:48:10.228Z,425
2017-05-01T07:49:10.480Z,450
2017-05-01T07:50:10.930Z,385
2017-05-01T07:51:10.655Z,420
2017-05-01T07:52:10.702Z,410
2017-05-01T07:53:10.743Z,430
2017-05-01T07:54:10.792Z,370
2017-05-01T07:55:10.515Z,400
2017-05-01T07:56:10.558Z,375
2017-05-01T07:57:10.905Z,350
2017-05-01T07:58:10.955Z,305
2017-05-01T07:59:10.688Z,265
2017-05-01T08:00:10.721Z,295
2017-05-01T08:01:11.386Z,355
2017-05-01T08:02:10.817Z,415
2017-05-01T08:03:11.770Z,410
2017-05-01T08:04:11.197Z,345
2017-05-01T08:05:10.934Z,335
2017-05-01T08:06:11.270Z,365
2017-05-01T08:07:11.625Z,420
2017-05-01T08:08:11.052Z,495
2017-05-01T08:09:11.708Z,465
2017-05-01T08:10:11.746Z,340
2017-05-01T08:11:11.472Z,320
2017-05-01T08:12:11.208Z,300
2017-05-01T08:13:11.555Z,275
2017-05-01T08:14:11.633Z,305
2017-05-01T08:15:11.637Z,350
2017-05-01T08:16:11.364Z,600
2017-05-01T08:17:11.726Z,485
2017-05-01T08:18:12.061Z,480
2017-05-01T08:19:11.492Z,415
2017-05-01T08:20:11.841Z,480
2017-05-01T08:21:11.875Z,450
2017-05-01T08:22:12.239Z,370
2017-05-01T08:23:12.271Z,310
2017-05-01T08:24:11.691Z,330
2017-05-01T08:25:12.045Z,330
2017-05-01T08:26:11.777Z,415
2017-05-01T08:27:11.810Z,515
2017-05-01T08:28:12.461Z,880
2017-05-01T08:29:12.818Z,490
2017-05-01T08:30:12.547Z,545
2017-05-01T08:31:12.283Z,490
2017-05-01T08:32:12.628Z,440
2017-05-01T08:33:12.682Z,400
2017-05-01T08:34:12.752Z,445
2017-05-01T08:35:12.770Z,595
2017-05-01T08:36:12.479Z,580
2017-05-01T08:37:12.536Z,335
2017-05-01T08:38:12.566Z,310
2017-05-01T08:39:12.603Z,285
2017-05-01T08:40:12.648Z,345
2017-05-01T08:41:13.000Z,1110
2017-05-01T08:42:12.416Z,650
2017-05-01T08:43:13.074Z,505
2017-05-01T08:44:13.126Z,615
2017-05-01T08:45:12.854Z,570
2017-05-01T08:46:13.192Z,500
2017-05-01T08:47:12.926Z,430
2017-05-01T08:48:13.282Z,390
2017-05-01T08:49:13.636Z,445
2017-05-01T08:50:12.788Z,395
2017-05-01T08:51:13.702Z,580
2017-05-01T08:52:13.445Z,580
2017-05-01T08:53:13.173Z,385
2017-05-01T08:54:13.268Z,320
2017-05-01T08:55:13.250Z,380
2017-05-01T08:56:13.300Z,415
2017-05-01T08:57:13.029Z,335
2017-05-01T08:58:13.382Z,295
2017-05-01T08:59:14.048Z,305
2017-05-01T09:00:13.768Z,345
2017-05-01T09:01:13.497Z,315
2017-05-01T09:02:13.541Z,295
2017-05-01T09:03:13.278Z,320
2017-05-01T09:04:13.630Z,325
2017-05-01T09:05:13.347Z,315
2017-05-01T09:06:13.707Z,345
2017-05-01T09:07:14.356Z,465
2017-05-01T09:08:14.093Z,390
2017-05-01T09:09:14.132Z,355
2017-05-01T09:10:13.861Z,360
2017-05-01T09:11:14.210Z,435
2017-05-01T09:12:13.954Z,410
2017-05-01T09:13:14.622Z,385
2017-05-01T09:14:13.718Z,360
2017-05-01T09:15:14.373Z,345
2017-05-01T09:16:14.101Z,305
2017-05-01T09:17:14.139Z,355
2017-05-01T09:18:13.885Z,390
2017-05-01T09:19:14.229Z,425
2017-05-01T09:20:14.275Z,595
2017-05-01T09:21:14.010Z,505
2017-05-01T09:22:14.345Z,655
2017-05-01T09:23:14.384Z,985
2017-05-01T09:24:14.430Z,2230
2017-05-01T09:25:14.773Z,820
2017-05-01T09:26:14.193Z,2275
2017-05-01T09:27:14.244Z,605
2017-05-01T09:28:14.289Z,570
2017-05-01T09:29:14.948Z,980
2017-05-01T09:30:14.356Z,470
2017-05-01T09:31:14.715Z,410
2017-05-01T09:32:14.753Z,380
2017-05-01T09:33:14.803Z,390
2017-05-01T09:34:14.839Z,585
2017-05-01T09:35:14.887Z,610
2017-05-01T09:36:15.232Z,500
2017-05-01T09:37:15.277Z,580
2017-05-01T09:38:15.624Z,2130
2017-05-01T09:39:15.056Z,2240
2017-05-01T09:40:14.786Z,500
2017-05-01T09:41:14.826Z,795
2017-05-01T09:42:15.175Z,515
2017-05-01T09:43:15.246Z,470
2017-05-01T09:44:14.954Z,605
2017-05-01T09:45:15.922Z,1840
2017-05-01T09:46:15.648Z,2215
2017-05-01T09:47:15.702Z,1900
2017-05-01T09:48:15.124Z,1120
2017-05-01T09:49:16.406Z,395
2017-05-01T09:50:15.204Z,400
2017-05-01T09:51:15.285Z,460
2017-05-01T09:52:15.607Z,545
2017-05-01T09:53:16.263Z,820
2017-05-01T09:54:15.690Z,555
2017-05-01T09:55:15.422Z,490
2017-05-01T09:56:16.104Z,505
2017-05-01T09:57:15.510Z,450
2017-05-01T09:58:16.175Z,995
2017-05-01T09:59:16.525Z,2455
2017-05-01T10:00:15.948Z,2305
2017-05-01T10:01:15.989Z,350
2017-05-01T10:02:16.645Z,305
2017-05-01T10:03:15.763Z,270
2017-05-01T10:04:16.433Z,265
2017-05-01T10:05:15.849Z,270
2017-05-01T10:06:16.202Z,280
2017-05-01T10:07:16.553Z,315
2017-05-01T10:08:16.286Z,385
2017-05-01T10:09:16.638Z,440
2017-05-01T10:10:16.059Z,380
2017-05-01T10:11:16.100Z,345
2017-05-01T10:12:16.453Z,300
2017-05-01T10:13:16.805Z,280
2017-05-01T10:14:16.548Z,285
2017-05-01T10:15:16.574Z,310
2017-05-01T10:16:16.625Z,290
2017-05-01T10:17:16.966Z,260
2017-05-01T10:18:17.007Z,250
2017-05-01T10:19:16.440Z,260
2017-05-01T10:20:16.471Z,265
2017-05-01T10:21:17.144Z,275
2017-05-01T10:22:16.554Z,305
2017-05-01T10:23:17.232Z,320
2017-05-01T10:24:16.959Z,280
2017-05-01T10:25:16.677Z,260
2017-05-01T10:26:17.055Z,260
2017-05-01T10:27:16.758Z,250
2017-05-01T10:28:17.113Z,230
2017-05-01T10:29:17.458Z,230
2017-05-01T10:30:17.189Z,245
2017-05-01T10:31:17.232Z,240
2017-05-01T10:32:17.270Z,245
2017-05-01T10:33:17.011Z,245
2017-05-01T10:34:17.046Z,265
2017-05-01T10:35:17.080Z,310
2017-05-01T10:36:17.148Z,320
2017-05-01T10:37:17.471Z,305
2017-05-01T10:38:17.821Z,260
2017-05-01T10:39:17.857Z,245
2017-05-01T10:40:17.586Z,245
2017-05-01T10:41:17.324Z,265
2017-05-01T10:42:17.362Z,275
2017-05-01T10:43:18.329Z,300
2017-05-01T10:44:17.445Z,330
2017-05-01T10:45:17.790Z,325
2017-05-01T10:46:17.521Z,285
2017-05-01T10:47:18.490Z,280
2017-05-01T10:48:17.931Z,285
2017-05-01T10:49:18.574Z,280
2017-05-01T10:50:18.607Z,315
2017-05-01T10:51:18.032Z,350
2017-05-01T10:52:18.071Z,375
2017-05-01T10:53:18.734Z,400
2017-05-01T10:54:18.153Z,415
2017-05-01T10:55:18.197Z,355
2017-05-01T10:56:18.227Z,320
2017-05-01T10:57:17.963Z,330
2017-05-01T10:58:18.622Z,355
2017-05-01T10:59:18.998Z,360
2017-05-01T11:00:18.701Z,395
2017-05-01T11:01:18.438Z,480
2017-05-01T11:02:18.164Z,405
2017-05-01T11:03:19.140Z,445
2017-05-01T11:04:18.249Z,480
2017-05-01T11:05:18.616Z,500
2017-05-01T11:06:18.941Z,440
2017-05-01T11:07:18.687Z,410
2017-05-01T11:08:19.026Z,445
2017-05-01T11:09:18.763Z,440
2017-05-01T11:10:18.797Z,580
2017-05-01T11:11:19.145Z,590
2017-05-01T11:12:18.879Z,565
2017-05-01T11:13:18.925Z,495
2017-05-01T11:14:19.280Z,465
2017-05-01T11:15:18.691Z,450
2017-05-01T11:16:19.045Z,490
2017-05-01T11:17:19.084Z,465
2017-05-01T11:18:19.437Z,465
2017-05-01T11:19:18.856Z,440
2017-05-01T11:20:19.204Z,430
2017-05-01T11:21:19.555Z,430
2017-05-01T11:22:18.986Z,435
2017-05-01T11:23:19.637Z,420
2017-05-01T11:24:19.372Z,395
2017-05-01T11:25:19.101Z,395
2017-05-01T11:26:19.158Z,370
2017-05-01T11:27:19.806Z,345
2017-05-01T11:28:19.545Z,335
2017-05-01T11:29:19.575Z,330
2017-05-01T11:30:19.618Z,365
2017-05-01T11:31:19.652Z,375
2017-05-01T11:32:19.696Z,365
2017-05-01T11:33:19.429Z,405
2017-05-01T11:34:19.476Z,445
2017-05-01T11:35:20.129Z,415
2017-05-01T11:36:19.555Z,340
2017-05-01T11:37:20.433Z,300
2017-05-01T11:38:20.560Z,300
2017-05-01T11:39:20.293Z,315
2017-05-01T11:40:19.719Z,320
2017-05-01T11:41:20.067Z,310
2017-05-01T11:42:19.800Z,305
2017-05-01T11:43:20.478Z,310
2017-05-01T11:44:20.497Z,305
2017-05-01T11:45:20.228Z,295
2017-05-01T11:46:20.622Z,310
2017-05-01T11:47:20.622Z,315
2017-05-01T11:48:20.662Z,325
2017-05-01T11:49:20.708Z,320
2017-05-01T11:50:20.735Z,320
2017-05-01T11:51:20.169Z,325
2017-05-01T11:52:20.516Z,315
2017-05-01T11:53:20.253Z,295
2017-05-01T11:54:20.595Z,290
2017-05-01T11:55:20.964Z,280
2017-05-01T11:56:21.325Z,270
2017-05-01T11:57:21.332Z,280
2017-05-01T11:58:21.101Z,305
2017-05-01T11:59:21.422Z,330
2017-05-01T12:00:20.528Z,340
2017-05-01T12:01:21.183Z,355
2017-05-01T12:02:21.544Z,360
2017-05-01T12:03:20.983Z,370
2017-05-01T12:04:20.707Z,395
2017-05-01T12:05:20.730Z,375
2017-05-01T12:06:20.772Z,355
2017-05-01T12:07:20.845Z,355
2017-05-01T12:08:21.481Z,350
2017-05-01T12:09:21.537Z,355
2017-05-01T12:10:21.241Z,375
2017-05-01T12:11:21.598Z,425
2017-05-01T12:12:21.640Z,440
2017-05-01T12:13:21.689Z,430
2017-05-01T12:14:21.102Z,435
2017-05-01T12:15:21.156Z,425
2017-05-01T12:16:21.493Z,415
2017-05-01T12:17:21.529Z,400
2017-05-01T12:18:22.522Z,375
2017-05-01T12:19:22.231Z,365
2017-05-01T12:20:21.343Z,340
2017-05-01T12:21:21.385Z,320
2017-05-01T12:22:21.430Z,320
2017-05-01T12:23:22.094Z,335
2017-05-01T12:24:21.841Z,350
2017-05-01T12:25:21.550Z,350
2017-05-01T12:26:21.588Z,345
2017-05-01T12:27:21.630Z,355
2017-05-01T12:28:21.670Z,360
2017-05-01T12:29:22.053Z,360
2017-05-01T12:30:21.957Z,355
2017-05-01T12:31:22.409Z,360
2017-05-01T12:32:22.448Z,385
2017-05-01T12:33:22.113Z,405
2017-05-01T12:34:22.229Z,425
2017-05-01T12:35:21.958Z,425
2017-05-01T12:36:22.303Z,415
2017-05-01T12:37:22.039Z,400
2017-05-01T12:38:22.695Z,400
2017-05-01T12:39:22.433Z,400
2017-05-01T12:40:22.158Z,400
2017-05-01T12:41:22.201Z,400
2017-05-01T12:42:22.249Z,405
2017-05-01T12:43:23.537Z,410
2017-05-01T12:44:23.282Z,420
2017-05-01T12:45:22.982Z,415
2017-05-01T12:46:22.408Z,415
2017-05-01T12:47:23.078Z,415
2017-05-01T12:48:22.493Z,400
2017-05-01T12:49:22.839Z,380
2017-05-01T12:50:22.569Z,365
2017-05-01T12:51:23.841Z,350
2017-05-01T12:52:23.591Z,340
2017-05-01T12:53:23.626Z,335
2017-05-01T12:54:23.667Z,330
2017-05-01T12:55:23.091Z,325
2017-05-01T12:56:22.820Z,325
2017-05-01T12:57:22.860Z,335
2017-05-01T12:58:22.910Z,335
2017-05-01T12:59:23.562Z,345
2017-05-01T13:00:22.982Z,365
2017-05-01T13:01:23.947Z,365
2017-05-01T13:02:23.387Z,355
2017-05-01T13:03:23.732Z,355
2017-05-01T13:04:23.768Z,365
2017-05-01T13:05:23.191Z,370
2017-05-01T13:06:23.231Z,365
2017-05-01T13:07:23.892Z,350
2017-05-01T13:08:23.930Z,350
2017-05-01T13:09:23.664Z,355
2017-05-01T13:10:24.012Z,355
2017-05-01T13:11:23.745Z,360
2017-05-01T13:12:24.098Z,340
2017-05-01T13:13:24.446Z,335
2017-05-01T13:14:24.228Z,335
2017-05-01T13:15:23.913Z,340
2017-05-01T13:16:23.976Z,345
2017-05-01T13:17:24.302Z,340
2017-05-01T13:18:24.359Z,330
2017-05-01T13:19:24.380Z,320
2017-05-01T13:20:24.108Z,320
2017-05-01T13:21:24.156Z,315
2017-05-01T13:22:24.507Z,305
2017-05-01T13:23:24.555Z,320
2017-05-01T13:24:24.895Z,305
2017-05-01T13:25:24.942Z,275
2017-05-01T13:26:24.389Z,255
2017-05-01T13:27:24.090Z,240
2017-05-01T13:28:24.456Z,235
2017-05-01T13:29:24.801Z,230
2017-05-01T13:30:24.877Z,230
2017-05-01T13:31:24.254Z,230
2017-05-01T13:32:24.910Z,240
2017-05-01T13:33:25.262Z,250
2017-05-01T13:34:24.684Z,265
2017-05-01T13:35:24.730Z,275
2017-05-01T13:36:24.455Z,280
2017-05-01T13:37:24.505Z,285
2017-05-01T13:38:25.153Z,290
2017-05-01T13:39:25.215Z,295
2017-05-01T13:40:25.236Z,295
2017-05-01T13:41:25.277Z,295
2017-05-01T13:42:25.009Z,290
2017-05-01T13:43:25.054Z,305
2017-05-01T13:44:25.427Z,325
2017-05-01T13:45:25.132Z,320
2017-05-01T13:46:25.200Z,310
2017-05-01T13:47:24.904Z,310
2017-05-01T13:48:26.183Z,300
2017-05-01T13:49:24.991Z,295
2017-05-01T13:50:25.646Z,295
2017-05-01T13:51:25.067Z,290
2017-05-01T13:52:25.420Z,295
2017-05-01T13:53:26.385Z,300
2017-05-01T13:54:26.432Z,285
2017-05-01T13:55:25.544Z,270
2017-05-01T13:56:25.268Z,255
2017-05-01T13:57:26.250Z,240
2017-05-01T13:58:26.279Z,240
2017-05-01T13:59:26.669Z,250
2017-05-01T14:00:25.431Z,255
2017-05-01T14:01:25.472Z,255
2017-05-01T14:02:25.824Z,255